Time;durP1;ratioP1;P1;durP2;ratioP2;P2;SDS_P1;SDS_P2;PMS_P1;PMS_P2;Temp;Humidity;BMP_temperature;BMP_pressure;BME280_temperature;BME280_humidity;BME280_pressure;Samples;Min_cycle;Max_cycle;Signal;HPM_P1;HPM_P2
2021/09/02 00:00:29;;;;;;;1.27;0.82;;;16.90;80.30;;;;;;4826190;29;20515;-81
2021/09/02 00:02:55;;;;;;;0.95;0.85;;;17.00;80.30;;;;;;4826851;29;20041;-81
2021/09/02 00:05:21;;;;;;;1.10;0.90;;;17.00;80.40;;;;;;4846526;29;20048;-79
2021/09/02 00:07:50;;;;;;;0.73;0.73;;;16.90;80.30;;;;;;4894234;29;20416;-81
2021/09/02 00:10:16;;;;;;;1.23;0.82;;;16.80;80.30;;;;;;4864637;29;20045;-80
2021/09/02 00:12:41;;;;;;;1.35;1.00;;;16.90;80.40;;;;;;4892930;28;20557;-80
2021/09/02 00:15:08;;;;;;;1.52;0.95;;;16.90;80.50;;;;;;4939033;28;20047;-81
2021/09/02 00:17:35;;;;;;;1.17;0.80;;;16.90;80.50;;;;;;4925506;28;20058;-80
2021/09/02 00:20:02;;;;;;;0.90;0.80;;;16.90;80.50;;;;;;4938779;28;20512;-82
2021/09/02 00:22:28;;;;;;;1.60;1.08;;;16.90;80.50;;;;;;4949884;28;20043;-81
2021/09/02 00:24:54;;;;;;;0.70;0.70;;;16.80;80.60;;;;;;4938427;28;20050;-79
2021/09/02 00:27:22;;;;;;;1.00;0.90;;;16.90;80.70;;;;;;4938448;28;20497;-82
2021/09/02 00:29:48;;;;;;;0.98;0.80;;;16.80;80.70;;;;;;4940639;28;20058;-82
2021/09/02 00:32:15;;;;;;;0.80;0.80;;;16.80;80.60;;;;;;4924466;28;20035;-82
2021/09/02 00:34:41;;;;;;;1.45;1.00;;;16.90;81.40;;;;;;4941151;28;20047;-82
2021/09/02 00:37:07;;;;;;;1.27;1.00;;;16.90;80.80;;;;;;4957898;28;20050;-82
2021/09/02 00:39:33;;;;;;;1.40;0.90;;;16.80;80.70;;;;;;4941107;28;20077;-81
2021/09/02 00:42:01;;;;;;;1.42;0.90;;;16.80;80.80;;;;;;4957506;28;20070;-82
2021/09/02 00:44:37;;;;;;;1.90;0.95;;;16.80;80.90;;;;;;4963498;28;20114;-79
2021/09/02 00:47:04;;;;;;;1.02;0.80;;;16.80;81.10;;;;;;4947885;29;20053;-78
2021/09/02 00:49:30;;;;;;;0.90;0.70;;;16.80;81.10;;;;;;4945250;28;20058;-78
2021/09/02 00:51:59;;;;;;;1.52;1.00;;;16.80;81.20;;;;;;4948391;28;20494;-81
2021/09/02 00:54:25;;;;;;;0.88;0.70;;;16.70;81.10;;;;;;4941404;28;20043;-81
2021/09/02 00:56:51;;;;;;;0.98;0.85;;;16.80;81.20;;;;;;4960119;28;20050;-80
2021/09/02 00:59:17;;;;;;;1.40;0.95;;;16.80;81.20;;;;;;4947657;28;20154;-81
2021/09/02 01:01:43;;;;;;;2.38;1.00;;;16.70;81.20;;;;;;4954587;28;20042;-81
2021/09/02 01:04:09;;;;;;;1.48;1.10;;;16.80;81.30;;;;;;4946602;28;20046;-81
2021/09/02 01:06:36;;;;;;;1.48;1.00;;;16.70;81.20;;;;;;4952244;29;20055;-81
2021/09/02 01:09:01;;;;;;;1.00;0.60;;;16.70;81.30;;;;;;4956480;29;20581;-81
2021/09/02 01:11:27;;;;;;;1.40;0.85;;;16.70;81.40;;;;;;4970535;28;20050;-81
2021/09/02 01:13:53;;;;;;;1.48;1.00;;;16.70;81.40;;;;;;4954146;28;20079;-79
2021/09/02 01:16:22;;;;;;;0.80;0.80;;;16.70;81.50;;;;;;4940573;28;20054;-82
2021/09/02 01:18:48;;;;;;;2.15;0.90;;;16.60;81.50;;;;;;4921718;28;20046;-82
2021/09/02 01:21:21;;;;;;;0.68;0.68;;;16.60;81.50;;;;;;4888133;29;20040;-84
2021/09/02 01:23:49;;;;;;;1.02;0.93;;;16.60;81.50;;;;;;4901549;29;20050;-79
2021/09/02 01:26:19;;;;;;;1.30;0.93;;;16.60;81.50;;;;;;4901759;29;20051;-80
2021/09/02 01:28:46;;;;;;;1.50;1.10;;;16.60;81.50;;;;;;4901867;29;20054;-80
2021/09/02 01:31:13;;;;;;;1.20;0.90;;;16.60;81.50;;;;;;4886456;29;20514;-79
2021/09/02 01:33:44;;;;;;;1.13;0.93;;;16.60;81.60;;;;;;4933424;29;20505;-81
2021/09/02 01:36:10;;;;;;;0.88;0.60;;;16.60;81.70;;;;;;4933532;29;20051;-81
2021/09/02 01:38:37;;;;;;;1.00;0.88;;;16.60;81.70;;;;;;4901831;29;20040;-79
2021/09/02 01:41:03;;;;;;;1.67;0.90;;;16.50;81.80;;;;;;4902201;29;20043;-79
2021/09/02 01:43:29;;;;;;;1.17;1.00;;;16.50;81.90;;;;;;4902296;29;20110;-79
2021/09/02 01:45:55;;;;;;;1.27;1.05;;;16.50;81.90;;;;;;4917846;29;20050;-82
2021/09/02 01:48:21;;;;;;;1.35;1.00;;;16.50;82.00;;;;;;4916226;29;20048;-81
2021/09/02 01:50:46;;;;;;;1.33;0.90;;;16.50;82.00;;;;;;4933404;29;20087;-82
2021/09/02 01:53:14;;;;;;;0.88;0.88;;;16.40;82.00;;;;;;4921597;28;20379;-82
2021/09/02 01:55:42;;;;;;;1.60;1.08;;;16.40;82.00;;;;;;4954633;28;20045;-82
2021/09/02 01:58:08;;;;;;;1.30;1.00;;;16.40;82.10;;;;;;4954793;28;20043;-82
2021/09/02 02:00:35;;;;;;;2.08;1.17;;;16.30;82.10;;;;;;4954954;28;20066;-81
2021/09/02 02:03:01;;;;;;;1.52;1.10;;;16.40;82.10;;;;;;4937810;28;20039;-81
2021/09/02 02:05:27;;;;;;;0.90;0.73;;;16.40;82.20;;;;;;4937412;28;20428;-81
2021/09/02 02:07:53;;;;;;;0.75;0.75;;;16.40;82.10;;;;;;4937553;28;20516;-82
2021/09/02 02:10:22;;;;;;;1.40;0.90;;;16.30;82.10;;;;;;4953896;28;20126;-81
2021/09/02 02:12:48;;;;;;;0.95;0.73;;;16.30;82.10;;;;;;4954481;28;20153;-82
2021/09/02 02:15:14;;;;;;;1.38;0.90;;;16.30;82.10;;;;;;4953624;28;20166;-82
2021/09/02 02:17:41;;;;;;;1.17;1.00;;;16.30;82.10;;;;;;4937414;28;20075;-82
2021/09/02 02:20:08;;;;;;;1.33;0.88;;;16.30;82.10;;;;;;4954282;28;20050;-81
2021/09/02 02:22:34;;;;;;;0.85;0.70;;;16.30;82.10;;;;;;4936979;29;20039;-82
2021/09/02 02:25:00;;;;;;;0.80;0.80;;;16.30;82.20;;;;;;4937357;28;20577;-81
2021/09/02 02:27:25;;;;;;;0.70;0.70;;;16.30;82.20;;;;;;4954542;28;20043;-81
2021/09/02 02:29:51;;;;;;;1.33;0.90;;;16.20;82.20;;;;;;4937348;28;20053;-82
2021/09/02 02:32:17;;;;;;;1.10;1.00;;;16.20;82.20;;;;;;4952744;28;20152;-81
2021/09/02 02:34:42;;;;;;;2.58;0.70;;;16.10;82.20;;;;;;4937999;29;20077;-82
2021/09/02 02:37:08;;;;;;;1.13;0.80;;;16.20;82.30;;;;;;4940380;28;20315;-82
2021/09/02 02:39:38;;;;;;;0.95;0.88;;;16.30;82.30;;;;;;4940216;28;20071;-81
2021/09/02 02:42:06;;;;;;;1.45;0.90;;;16.20;82.30;;;;;;4956021;28;20031;-82
2021/09/02 02:44:32;;;;;;;0.70;0.60;;;16.20;82.30;;;;;;4939885;28;20174;-81
2021/09/02 02:46:58;;;;;;;1.08;0.88;;;16.30;82.40;;;;;;4939766;28;20043;-82
2021/09/02 02:49:23;;;;;;;0.77;0.70;;;16.20;82.30;;;;;;4924007;29;20456;-82
2021/09/02 02:51:49;;;;;;;1.23;0.82;;;16.30;82.30;;;;;;4939734;28;20046;-82
2021/09/02 02:54:15;;;;;;;1.63;0.95;;;16.30;82.30;;;;;;4957663;28;20508;-81
2021/09/02 02:56:41;;;;;;;0.98;0.80;;;16.30;82.30;;;;;;4940194;28;20051;-81
2021/09/02 02:59:07;;;;;;;1.15;0.82;;;16.30;82.30;;;;;;4956024;28;20051;-81
2021/09/02 03:01:32;;;;;;;1.67;0.75;;;16.20;82.20;;;;;;4942572;28;20501;-82
2021/09/02 03:03:58;;;;;;;0.70;0.70;;;16.30;82.20;;;;;;4957594;28;20079;-82
2021/09/02 03:06:24;;;;;;;0.90;0.80;;;16.30;82.20;;;;;;4963146;28;20043;-81
2021/09/02 03:08:49;;;;;;;1.67;0.93;;;16.20;82.20;;;;;;4939994;28;20528;-82
2021/09/02 03:11:15;;;;;;;1.10;0.80;;;16.30;82.20;;;;;;4941946;28;20517;-81
2021/09/02 03:13:41;;;;;;;1.08;0.80;;;16.30;82.20;;;;;;4941904;28;20079;-82
2021/09/02 03:16:07;;;;;;;1.20;0.82;;;16.30;82.20;;;;;;4939858;28;20039;-82
2021/09/02 03:18:33;;;;;;;1.02;0.80;;;16.30;82.20;;;;;;4939927;28;20075;-81
2021/09/02 03:20:59;;;;;;;1.20;0.68;;;16.40;82.30;;;;;;4940425;29;20044;-81
2021/09/02 03:23:25;;;;;;;1.42;0.93;;;16.20;82.20;;;;;;4957185;28;20093;-81
2021/09/02 03:25:50;;;;;;;1.13;0.90;;;16.30;82.30;;;;;;4939480;28;20150;-82
2021/09/02 03:28:16;;;;;;;1.25;0.90;;;16.20;82.20;;;;;;4955410;28;20046;-81
2021/09/02 03:30:42;;;;;;;0.90;0.80;;;16.20;82.30;;;;;;4956871;28;20462;-82
2021/09/02 03:33:07;;;;;;;2.70;1.17;;;16.30;82.40;;;;;;4939250;28;20091;-82
2021/09/02 03:35:33;;;;;;;1.25;1.02;;;16.30;82.40;;;;;;4939670;28;20505;-82
2021/09/02 03:37:59;;;;;;;1.85;1.20;;;16.20;82.30;;;;;;4956931;28;20109;-82
2021/09/02 03:40:25;;;;;;;2.47;1.30;;;16.30;82.40;;;;;;4956399;28;20039;-82
2021/09/02 03:42:50;;;;;;;1.77;1.20;;;16.30;82.40;;;;;;4955440;28;20050;-82
2021/09/02 03:45:16;;;;;;;1.85;1.20;;;16.30;82.40;;;;;;4955244;28;20053;-82
2021/09/02 03:47:48;;;;;;;3.30;1.25;;;16.30;82.40;;;;;;4954858;28;20043;-82
2021/09/02 03:50:14;;;;;;;0.95;0.80;;;16.30;82.40;;;;;;4955541;28;20051;-82
2021/09/02 03:52:40;;;;;;;1.60;0.98;;;16.30;82.40;;;;;;4941256;28;20138;-82
2021/09/02 03:55:06;;;;;;;2.05;1.20;;;16.30;82.40;;;;;;4938960;28;20134;-82
2021/09/02 03:57:32;;;;;;;0.98;0.80;;;16.30;82.50;;;;;;4939221;28;20067;-82
2021/09/02 03:59:57;;;;;;;1.00;0.80;;;16.20;82.40;;;;;;4955230;28;20485;-82
2021/09/02 04:02:23;;;;;;;1.23;0.98;;;16.30;82.50;;;;;;4939523;28;20094;-82
2021/09/02 04:04:49;;;;;;;1.20;0.90;;;16.40;82.60;;;;;;4956914;28;20126;-82
2021/09/02 04:07:15;;;;;;;1.05;0.80;;;16.30;82.60;;;;;;4939691;28;20486;-82
2021/09/02 04:09:41;;;;;;;1.52;0.98;;;16.30;82.60;;;;;;4939613;28;20058;-83
2021/09/02 04:12:07;;;;;;;1.95;1.00;;;16.30;82.60;;;;;;4923598;28;20081;-82
2021/09/02 04:14:32;;;;;;;1.52;1.10;;;16.30;82.60;;;;;;4953706;28;20039;-82
2021/09/02 04:16:58;;;;;;;1.35;0.82;;;16.30;82.70;;;;;;4939323;28;20478;-81
2021/09/02 04:19:24;;;;;;;1.00;0.77;;;16.30;82.60;;;;;;4941892;28;20764;-82
2021/09/02 04:21:50;;;;;;;1.25;0.90;;;16.30;82.70;;;;;;4955237;28;20048;-81
2021/09/02 04:24:16;;;;;;;1.45;0.90;;;16.30;82.70;;;;;;4943187;28;20035;-81
2021/09/02 04:26:43;;;;;;;1.17;0.98;;;16.20;82.70;;;;;;4939453;28;20053;-81
2021/09/02 04:29:10;;;;;;;1.23;0.80;;;16.20;82.70;;;;;;4941196;28;20035;-81
2021/09/02 04:31:35;;;;;;;2.35;1.10;;;16.20;82.80;;;;;;4954889;28;20047;-82
2021/09/02 04:34:01;;;;;;;1.42;0.95;;;16.20;82.80;;;;;;4956961;28;20442;-81
2021/09/02 04:36:27;;;;;;;2.25;1.00;;;16.10;82.90;;;;;;4956217;28;20043;-81
2021/09/02 04:38:52;;;;;;;1.95;1.30;;;16.20;83.00;;;;;;4956188;28;20078;-81
2021/09/02 04:41:18;;;;;;;1.17;0.90;;;16.20;83.00;;;;;;4938848;28;20044;-81
2021/09/02 04:43:44;;;;;;;1.85;1.02;;;16.10;82.90;;;;;;4938765;28;20130;-82
2021/09/02 04:46:13;;;;;;;1.67;1.20;;;16.10;82.90;;;;;;4938234;28;20043;-81
2021/09/02 04:48:38;;;;;;;1.17;1.00;;;16.10;83.00;;;;;;4954277;28;20102;-81
2021/09/02 04:51:04;;;;;;;1.88;1.08;;;16.10;83.00;;;;;;4965149;28;20046;-81
2021/09/02 04:53:30;;;;;;;0.70;0.60;;;16.10;83.00;;;;;;4938877;28;20480;-82
2021/09/02 04:55:56;;;;;;;1.20;0.82;;;16.10;83.00;;;;;;4939092;28;20039;-82
2021/09/02 04:58:22;;;;;;;1.45;1.08;;;16.10;83.00;;;;;;4938084;28;20035;-81
2021/09/02 05:00:47;;;;;;;2.05;1.27;;;16.10;83.00;;;;;;4939348;28;20043;-82
2021/09/02 05:03:13;;;;;;;1.95;1.30;;;16.10;83.00;;;;;;4955832;28;20039;-81
2021/09/02 05:05:39;;;;;;;1.63;0.95;;;16.00;83.00;;;;;;4955293;28;20525;-82
2021/09/02 05:08:05;;;;;;;1.20;1.00;;;16.10;83.10;;;;;;4937848;29;20083;-81
2021/09/02 05:10:32;;;;;;;1.10;0.80;;;16.10;83.10;;;;;;4954560;28;20082;-82
2021/09/02 05:12:58;;;;;;;1.42;0.98;;;16.00;83.10;;;;;;4940059;29;20117;-82
2021/09/02 05:15:24;;;;;;;1.52;1.00;;;16.10;83.10;;;;;;4938001;28;20039;-82
2021/09/02 05:17:50;;;;;;;2.45;0.85;;;16.10;83.10;;;;;;4955017;28;20043;-81
2021/09/02 05:20:16;;;;;;;1.70;1.08;;;16.10;83.10;;;;;;4940398;28;20478;-82
2021/09/02 05:22:43;;;;;;;1.02;0.80;;;16.10;83.10;;;;;;4937409;28;20137;-81
2021/09/02 05:25:10;;;;;;;1.25;0.82;;;16.10;83.20;;;;;;4938166;28;20046;-81
2021/09/02 05:27:36;;;;;;;1.10;0.90;;;16.00;83.20;;;;;;4953405;28;20040;-81
2021/09/02 05:30:04;;;;;;;2.17;1.00;;;16.20;83.20;;;;;;4937766;28;20131;-82
2021/09/02 05:32:30;;;;;;;2.40;0.80;;;16.00;83.10;;;;;;4939652;28;20047;-81
2021/09/02 05:34:56;;;;;;;1.25;0.82;;;16.10;83.20;;;;;;4951319;28;20402;-82
2021/09/02 05:37:23;;;;;;;2.30;1.00;;;16.10;83.10;;;;;;4937560;28;20059;-82
2021/09/02 05:39:48;;;;;;;1.35;0.98;;;16.20;83.80;;;;;;4937905;28;20047;-81
2021/09/02 05:42:14;;;;;;;1.98;1.10;;;16.10;83.20;;;;;;4937334;28;20057;-82
2021/09/02 05:44:40;;;;;;;1.25;0.90;;;16.10;83.10;;;;;;4956761;28;20039;-81
2021/09/02 05:47:05;;;;;;;1.45;1.13;;;16.10;83.10;;;;;;4937403;28;20055;-81
2021/09/02 05:49:31;;;;;;;1.90;1.05;;;16.10;83.10;;;;;;4939211;28;20053;-82
2021/09/02 05:51:57;;;;;;;2.05;1.10;;;16.20;83.10;;;;;;4954454;28;20058;-82
2021/09/02 05:54:23;;;;;;;1.08;0.88;;;16.10;83.10;;;;;;4951019;28;20055;-82
2021/09/02 05:56:49;;;;;;;2.22;1.15;;;16.20;83.20;;;;;;4937032;28;20038;-82
2021/09/02 05:59:14;;;;;;;1.58;0.98;;;16.10;83.10;;;;;;4937410;28;20149;-82
2021/09/02 06:01:40;;;;;;;1.80;0.93;;;16.20;83.10;;;;;;4955033;28;20454;-82
2021/09/02 06:04:06;;;;;;;1.30;0.98;;;16.20;83.80;;;;;;4953315;28;20081;-82
2021/09/02 06:06:31;;;;;;;1.27;0.88;;;16.20;83.10;;;;;;4937585;28;20047;-82
2021/09/02 06:08:57;;;;;;;1.25;0.93;;;16.20;83.10;;;;;;4958065;28;20086;-82
2021/09/02 06:11:23;;;;;;;1.17;1.00;;;16.20;83.10;;;;;;4937638;28;20059;-82
2021/09/02 06:13:49;;;;;;;1.60;1.13;;;16.20;83.00;;;;;;4936738;28;20102;-82
2021/09/02 06:16:14;;;;;;;2.60;1.08;;;16.20;83.00;;;;;;4937019;29;20122;-82
2021/09/02 06:18:40;;;;;;;1.60;0.98;;;16.30;83.10;;;;;;4936927;28;20039;-82
2021/09/02 06:21:06;;;;;;;1.63;1.00;;;16.30;83.10;;;;;;4954800;28;20043;-82
2021/09/02 06:23:31;;;;;;;2.97;1.08;;;16.20;83.00;;;;;;4953257;28;20079;-83
2021/09/02 06:25:58;;;;;;;2.33;1.20;;;16.30;83.00;;;;;;4937228;28;20043;-80
2021/09/02 06:28:23;;;;;;;1.20;0.88;;;16.30;82.90;;;;;;4941047;28;20043;-79
2021/09/02 06:30:49;;;;;;;1.83;0.90;;;16.20;82.70;;;;;;4941380;28;20053;-80
2021/09/02 06:33:16;;;;;;;1.48;1.00;;;16.30;82.80;;;;;;4960472;28;20015;-80
2021/09/02 06:35:42;;;;;;;1.70;1.02;;;16.40;82.70;;;;;;4964118;28;20040;-80
2021/09/02 06:38:08;;;;;;;1.50;1.13;;;16.50;82.60;;;;;;4966641;28;20058;-80
2021/09/02 06:40:34;;;;;;;1.88;1.15;;;16.50;82.50;;;;;;4968121;28;20055;-80
2021/09/02 06:43:01;;;;;;;1.55;1.10;;;16.50;82.40;;;;;;4950818;29;20039;-79
2021/09/02 06:45:26;;;;;;;1.23;0.93;;;16.50;82.30;;;;;;4965173;28;20078;-79
2021/09/02 06:47:52;;;;;;;1.50;0.88;;;16.60;82.20;;;;;;4950337;28;20485;-81
2021/09/02 06:50:18;;;;;;;2.35;1.30;;;16.60;82.20;;;;;;4952819;28;20111;-79
2021/09/02 06:52:44;;;;;;;1.33;1.00;;;16.70;82.10;;;;;;4968505;28;20051;-78
2021/09/02 06:55:11;;;;;;;1.80;1.08;;;16.60;82.20;;;;;;4965009;28;20044;-79
2021/09/02 06:57:37;;;;;;;1.10;0.80;;;16.70;82.20;;;;;;4937919;29;20516;-79
2021/09/02 07:00:05;;;;;;;2.40;0.95;;;16.60;82.20;;;;;;4955758;28;20095;-80
2021/09/02 07:02:31;;;;;;;1.83;0.88;;;16.60;82.10;;;;;;4954949;28;20408;-80
2021/09/02 07:04:57;;;;;;;1.25;0.82;;;16.60;82.20;;;;;;4953708;28;20051;-80
2021/09/02 07:07:23;;;;;;;2.67;1.02;;;16.60;82.20;;;;;;4954351;28;20082;-80
2021/09/02 07:09:49;;;;;;;1.48;0.95;;;16.60;82.30;;;;;;4953481;28;20043;-80
2021/09/02 07:12:14;;;;;;;2.58;1.08;;;16.60;82.30;;;;;;4954251;28;20466;-81
2021/09/02 07:14:41;;;;;;;1.55;0.98;;;16.60;82.30;;;;;;4954730;28;20047;-81
2021/09/02 07:17:09;;;;;;;1.90;1.23;;;16.60;82.20;;;;;;4937920;28;20039;-84
2021/09/02 07:20:11;;;;;;;2.17;1.08;;;16.70;82.30;;;;;;4941925;28;20043;-84
2021/09/02 07:48:32;;;;;;;0.88;0.52;;;16.80;81.50;;;;;;4786454;29;20048;-81
2021/09/02 07:50:58;;;;;;;1.05;0.70;;;16.90;81.50;;;;;;4789580;30;20071;-80
2021/09/02 07:53:23;;;;;;;1.48;0.80;;;16.90;81.50;;;;;;4788372;30;20043;-80
2021/09/02 07:55:49;;;;;;;1.27;0.70;;;17.00;81.50;;;;;;4802161;29;20114;-80
2021/09/02 07:58:15;;;;;;;1.05;0.77;;;17.10;81.40;;;;;;4825374;29;20054;-84
2021/09/02 08:12:26;;;;;;;1.08;0.80;;;17.40;80.70;;;;;;4750214;30;20628;-85
2021/09/02 08:26:49;;;;;;;0.95;0.80;;;18.40;78.90;;;;;;4749886;30;20517;-84
2021/09/02 08:29:21;;;;;;;0.73;0.70;;;18.60;78.40;;;;;;4748022;30;20082;-83
2021/09/02 08:32:09;;;;;;;1.33;0.70;;;18.70;78.30;;;;;;4748593;30;20086;-83
2021/09/02 08:34:35;;;;;;;1.83;0.80;;;18.80;77.90;;;;;;4727116;30;20445;-83
2021/09/02 08:37:01;;;;;;;0.93;0.77;;;18.80;77.90;;;;;;4710883;30;20065;-81
2021/09/02 08:39:27;;;;;;;1.50;0.80;;;18.80;78.30;;;;;;4705312;30;20060;-81
2021/09/02 08:41:57;;;;;;;1.88;1.13;;;19.00;78.30;;;;;;4718374;30;20505;-82
2021/09/02 09:07:08;;;;;;;0.82;0.70;;;19.40;77.50;;;;;;4854459;29;20060;-84
2021/09/02 09:09:36;;;;;;;0.63;0.63;;;19.50;77.60;;;;;;4848922;29;20061;-84
2021/09/02 09:27:50;;;;;;;1.10;0.88;;;19.50;77.20;;;;;;4867980;29;20528;-81
2021/09/02 09:30:20;;;;;;;1.42;0.90;;;19.70;77.10;;;;;;4828237;29;20046;-85
2021/09/02 09:33:19;;;;;;;0.85;0.85;;;19.70;76.90;;;;;;4812474;29;20129;-81
2021/09/02 09:35:55;;;;;;;1.60;1.02;;;19.70;76.80;;;;;;4819491;29;20049;-82
2021/09/02 09:38:21;;;;;;;1.00;0.90;;;19.70;76.80;;;;;;4862449;29;20504;-81
2021/09/02 09:40:50;;;;;;;1.45;0.95;;;19.70;76.80;;;;;;4827903;29;20446;-82
2021/09/02 09:43:22;;;;;;;1.27;0.85;;;19.70;76.80;;;;;;4820745;29;20057;-85
2021/09/02 09:50:21;;;;;;;1.13;0.88;;;19.70;76.90;;;;;;4854846;29;20182;-84
2021/09/02 09:56:12;;;;;;;1.00;0.90;;;19.60;77.20;;;;;;4845561;29;19927;-82
2021/09/02 09:58:38;;;;;;;1.23;0.80;;;19.60;77.20;;;;;;4843433;29;20042;-81
2021/09/02 10:01:06;;;;;;;1.27;0.90;;;19.60;77.20;;;;;;4844273;29;21408;-83
2021/09/02 10:03:33;;;;;;;1.45;0.90;;;19.60;77.10;;;;;;4844572;29;20046;-77
2021/09/02 10:06:04;;;;;;;1.35;0.82;;;19.60;77.00;;;;;;4858649;29;20061;-80
2021/09/02 10:08:33;;;;;;;1.38;0.95;;;19.60;77.00;;;;;;4861366;29;20552;-78
2021/09/02 10:11:02;;;;;;;1.58;0.90;;;19.60;77.10;;;;;;4880421;29;20073;-80
2021/09/02 10:13:29;;;;;;;1.35;1.00;;;19.50;77.20;;;;;;4876355;29;20041;-80
2021/09/02 10:15:55;;;;;;;1.70;1.10;;;19.50;77.30;;;;;;4876649;29;20105;-81
2021/09/02 10:18:21;;;;;;;1.35;1.08;;;19.60;77.30;;;;;;4878947;29;20143;-82
2021/09/02 10:20:48;;;;;;;1.80;1.30;;;19.60;77.00;;;;;;4860987;29;20083;-81
2021/09/02 10:23:23;;;;;;;1.33;1.02;;;19.70;76.70;;;;;;4876694;29;20049;-81
2021/09/02 10:25:49;;;;;;;1.10;0.80;;;19.60;76.70;;;;;;4876722;29;20461;-81
2021/09/02 10:28:24;;;;;;;1.92;0.90;;;19.70;76.80;;;;;;4876510;29;20048;-81
2021/09/02 10:30:56;;;;;;;1.08;0.80;;;19.70;76.70;;;;;;4876909;29;20052;-81
2021/09/02 10:33:34;;;;;;;3.08;0.82;;;19.80;76.60;;;;;;4927500;28;20047;-81
2021/09/02 10:36:02;;;;;;;1.38;0.85;;;19.80;76.20;;;;;;4937958;28;20110;-81
2021/09/02 10:38:39;;;;;;;1.67;1.20;;;20.00;76.00;;;;;;4954353;28;20043;-80
2021/09/02 10:41:06;;;;;;;0.95;0.73;;;19.90;75.70;;;;;;4936785;28;20118;-79
2021/09/02 10:43:50;;;;;;;1.73;1.00;;;20.00;76.00;;;;;;4953763;28;20057;-81
2021/09/02 10:46:34;;;;;;;1.00;0.90;;;20.00;75.70;;;;;;4937010;28;20039;-79
2021/09/02 10:49:12;;;;;;;1.73;0.88;;;20.10;75.50;;;;;;4952859;28;20039;-79
2021/09/02 10:51:50;;;;;;;1.10;0.80;;;20.10;76.10;;;;;;4953818;28;20047;-82
2021/09/02 10:54:28;;;;;;;1.08;0.90;;;20.20;75.50;;;;;;4938880;28;20054;-83
2021/09/02 10:56:59;;;;;;;1.70;1.20;;;20.20;75.30;;;;;;4946021;28;20564;-81
2021/09/02 10:59:43;;;;;;;1.38;1.10;;;20.30;75.10;;;;;;4958505;28;20039;-79
2021/09/02 11:02:30;;;;;;;1.08;0.98;;;20.30;75.00;;;;;;4939945;28;20450;-77
2021/09/02 11:05:07;;;;;;;1.33;0.90;;;20.30;75.00;;;;;;4942498;28;20059;-82
2021/09/02 11:08:06;;;;;;;1.63;1.10;;;20.30;75.00;;;;;;4925464;29;20035;-81
2021/09/02 11:10:36;;;;;;;2.40;1.00;;;20.30;75.10;;;;;;4897582;29;20053;-83
2021/09/02 11:13:06;;;;;;;1.00;0.90;;;20.40;75.10;;;;;;4881909;29;20048;-81
2021/09/02 11:15:35;;;;;;;;;;;20.30;75.00;;;;;;4881701;29;20462;-79
2021/09/02 11:18:03;;;;;;;1.77;0.90;;;20.40;75.00;;;;;;4899224;29;19963;-83
2021/09/02 11:20:32;;;;;;;2.25;1.40;;;20.50;74.80;;;;;;4882361;29;20571;-79
2021/09/02 11:23:11;;;;;;;1.17;0.80;;;20.50;74.50;;;;;;4884235;29;20043;-87
2021/09/02 11:25:40;;;;;;;1.35;1.00;;;20.50;74.40;;;;;;4899978;29;20052;-83
2021/09/02 11:28:06;;;;;;;1.73;0.90;;;20.50;74.40;;;;;;4881555;29;20056;-83
2021/09/02 11:30:37;;;;;;;0.88;0.82;;;20.50;74.50;;;;;;4881793;29;20052;-82
2021/09/02 11:33:08;;;;;;;1.10;0.90;;;20.60;74.40;;;;;;4900055;29;20052;-82
2021/09/02 11:35:36;;;;;;;1.00;0.90;;;20.70;74.30;;;;;;4903510;29;20152;-81
2021/09/02 11:38:18;;;;;;;1.05;0.85;;;20.80;74.10;;;;;;4893241;29;20068;-85
2021/09/02 11:41:05;;;;;;;1.50;0.98;;;20.80;74.00;;;;;;4928431;28;21068;-85
2021/09/02 11:43:38;;;;;;;1.08;0.70;;;20.80;74.00;;;;;;4956915;28;20521;-80
2021/09/02 11:46:10;;;;;;;1.15;1.00;;;20.70;74.00;;;;;;4956674;28;20046;-81
2021/09/02 11:48:50;;;;;;;1.10;0.82;;;20.70;74.00;;;;;;4921472;29;20043;-80
2021/09/02 11:51:27;;;;;;;1.45;1.00;;;20.70;74.20;;;;;;4967364;28;20135;-82
2021/09/02 11:57:36;;;;;;;0.80;0.80;;;20.90;73.80;;;;;;4938409;29;20417;-84
2021/09/02 12:00:21;;;;;;;1.17;0.80;;;20.90;73.60;;;;;;4973737;28;20125;-82
2021/09/02 12:03:27;;;;;;;0.70;0.70;;;20.90;73.70;;;;;;4913552;29;20977;-82
2021/09/02 12:10:10;;;;;;;1.35;0.80;;;21.00;73.70;;;;;;4859789;29;20060;-82
2021/09/02 12:16:08;;;;;;;0.68;0.68;;;21.30;73.40;;;;;;4841281;29;20111;-80
2021/09/02 12:18:35;;;;;;;1.10;0.80;;;21.50;72.70;;;;;;4843203;29;20110;-79
2021/09/02 12:21:19;;;;;;;0.70;0.70;;;21.60;72.50;;;;;;4840915;29;20046;-80
2021/09/02 12:23:47;;;;;;;0.85;0.82;;;21.60;72.50;;;;;;4841060;29;20526;-79
2021/09/02 12:26:14;;;;;;;0.70;0.68;;;21.60;72.40;;;;;;4842782;29;20042;-80
2021/09/02 12:28:44;;;;;;;1.15;0.75;;;21.60;72.30;;;;;;4845311;29;20091;-80
2021/09/02 12:31:32;;;;;;;1.92;1.00;;;21.70;72.20;;;;;;4824373;29;20130;-78
2021/09/02 12:34:02;;;;;;;1.23;1.02;;;21.70;72.10;;;;;;4871649;29;20052;-79
2021/09/02 12:36:31;;;;;;;1.53;0.87;;;21.70;72.10;;;;;;4864890;29;20049;-79
2021/09/02 12:39:11;;;;;;;2.80;1.13;;;21.70;72.20;;;;;;4864922;29;20048;-81
2021/09/02 12:41:42;;;;;;;1.08;0.88;;;21.60;72.10;;;;;;4932231;29;20083;-84
2021/09/02 12:44:10;;;;;;;1.60;0.68;;;21.60;72.10;;;;;;4915481;29;20621;-81
2021/09/02 12:46:55;;;;;;;1.00;0.75;;;21.50;72.20;;;;;;4929070;28;20039;-79
2021/09/02 12:49:30;;;;;;;1.75;0.90;;;21.50;72.30;;;;;;4944461;28;20078;-80
2021/09/02 12:51:59;;;;;;;1.08;0.85;;;21.50;72.40;;;;;;4940058;28;20039;-82
2021/09/02 12:54:25;;;;;;;1.58;0.90;;;21.50;72.40;;;;;;4941988;28;20054;-80
2021/09/02 12:56:51;;;;;;;1.05;0.90;;;21.60;72.40;;;;;;4962589;28;20043;-80
2021/09/02 12:59:17;;;;;;;1.63;0.80;;;21.50;72.20;;;;;;4939331;29;20034;-78
2021/09/02 13:01:42;;;;;;;2.47;1.10;;;21.50;72.20;;;;;;4944019;28;20478;-79
2021/09/02 13:04:08;;;;;;;2.28;1.00;;;21.50;72.20;;;;;;4939671;28;20113;-81
2021/09/02 13:06:34;;;;;;;0.98;0.80;;;21.50;72.30;;;;;;4956795;28;20090;-80
2021/09/02 13:09:01;;;;;;;1.25;1.10;;;21.40;72.40;;;;;;4938218;29;20513;-80
2021/09/02 13:11:28;;;;;;;0.82;0.80;;;21.40;72.60;;;;;;4937852;28;20065;-76
2021/09/02 13:13:55;;;;;;;1.75;0.98;;;21.40;72.50;;;;;;4960379;28;20039;-77
2021/09/02 13:16:21;;;;;;;1.90;0.95;;;21.40;72.60;;;;;;4942115;28;20043;-77
2021/09/02 13:18:47;;;;;;;1.70;1.38;;;21.40;72.40;;;;;;4943740;28;20389;-78
2021/09/02 13:21:13;;;;;;;0.82;0.82;;;21.40;72.20;;;;;;4951573;28;20047;-77
2021/09/02 13:23:39;;;;;;;1.33;1.08;;;21.40;72.30;;;;;;4956235;28;20035;-78
2021/09/02 13:26:05;;;;;;;1.10;0.90;;;21.40;72.30;;;;;;4954825;28;20057;-78
2021/09/02 13:28:31;;;;;;;1.30;1.00;;;21.40;72.30;;;;;;4939551;28;20039;-77
2021/09/02 13:30:57;;;;;;;2.03;0.90;;;21.40;72.30;;;;;;4938379;29;20035;-77
2021/09/02 13:33:24;;;;;;;1.05;0.85;;;21.40;72.30;;;;;;4960066;28;20050;-77
2021/09/02 13:35:49;;;;;;;2.45;0.80;;;21.40;72.20;;;;;;4961054;28;20110;-77
2021/09/02 13:38:15;;;;;;;1.13;0.70;;;21.50;72.10;;;;;;4962367;28;20039;-78
2021/09/02 13:40:41;;;;;;;1.60;0.85;;;21.50;71.80;;;;;;4965054;28;20422;-79
2021/09/02 13:43:06;;;;;;;1.75;0.80;;;21.50;71.90;;;;;;4957108;28;20069;-78
2021/09/02 13:45:32;;;;;;;1.38;1.00;;;21.50;71.80;;;;;;4939072;28;20047;-77
2021/09/02 13:47:58;;;;;;;1.38;0.95;;;21.40;71.70;;;;;;4941299;28;20047;-80
2021/09/02 13:50:23;;;;;;;1.15;0.90;;;21.40;71.70;;;;;;4941336;29;20402;-77
2021/09/02 13:52:49;;;;;;;1.85;1.00;;;21.40;71.80;;;;;;4955244;28;20417;-80
2021/09/02 13:55:16;;;;;;;1.00;0.80;;;21.30;72.00;;;;;;4958830;28;20130;-81
2021/09/02 13:57:42;;;;;;;0.80;0.77;;;21.40;71.80;;;;;;4952738;28;20043;-80
2021/09/02 14:00:10;;;;;;;0.80;0.80;;;21.50;71.70;;;;;;4962527;28;20054;-81
2021/09/02 14:02:37;;;;;;;1.20;0.90;;;21.50;71.40;;;;;;4943497;28;20043;-81
2021/09/02 14:05:04;;;;;;;1.42;0.85;;;21.50;71.30;;;;;;4945740;28;20055;-80
2021/09/02 14:07:30;;;;;;;1.27;1.00;;;21.50;71.40;;;;;;4952650;28;20047;-82
2021/09/02 14:09:56;;;;;;;0.88;0.80;;;21.40;71.50;;;;;;4946584;28;20050;-82
2021/09/02 14:12:45;;;;;;;0.70;0.70;;;21.40;71.60;;;;;;4941837;28;20489;-83
2021/09/02 14:15:12;;;;;;;1.00;0.75;;;21.40;71.70;;;;;;4942378;29;20070;-82
2021/09/02 14:17:38;;;;;;;0.98;0.68;;;21.40;71.60;;;;;;4894609;29;20140;-80
2021/09/02 14:20:36;;;;;;;1.30;0.90;;;21.40;71.60;;;;;;4884605;29;20045;-79
2021/09/02 14:31:57;;;;;;;0.88;0.82;;;21.40;71.60;;;;;;4764711;30;20064;-82
2021/09/02 14:47:17;;;;;;;1.13;0.80;;;21.40;71.40;;;;;;4708433;30;20061;-79
2021/09/02 14:49:43;;;;;;;1.20;0.80;;;21.40;71.30;;;;;;4741311;30;20061;-79
2021/09/02 14:52:08;;;;;;;0.93;0.80;;;21.40;71.20;;;;;;4739496;30;20057;-79
2021/09/02 14:54:34;;;;;;;1.92;0.70;;;21.40;71.30;;;;;;4736735;30;20069;-80
2021/09/02 14:57:00;;;;;;;1.10;0.73;;;21.40;71.20;;;;;;4749410;30;20049;-80
2021/09/02 14:59:36;;;;;;;1.38;0.75;;;21.40;71.20;;;;;;4755239;30;20565;-83
2021/09/02 15:02:04;;;;;;;1.13;0.90;;;21.40;71.00;;;;;;4749193;30;20578;-84